sensor_id;sensor_type;location;lat;lon;timestamp;P1;durP1;ratioP1;P2;durP2;ratioP2
48845;SDS011;34665;51.886;5.436;2023-01-06T00:00:40;18.07;;;4.87;;
48845;SDS011;34665;51.886;5.436;2023-01-06T00:03:06;13.87;;;4.33;;
48845;SDS011;34665;51.886;5.436;2023-01-06T00:05:33;13.47;;;3.80;;
48845;SDS011;34665;51.886;5.436;2023-01-06T00:07:58;13.97;;;4.47;;
48845;SDS011;34665;51.886;5.436;2023-01-06T00:10:25;11.02;;;3.83;;
48845;SDS011;34665;51.886;5.436;2023-01-06T00:12:52;17.37;;;4.43;;
48845;SDS011;34665;51.886;5.436;2023-01-06T00:15:18;18.17;;;4.80;;
48845;SDS011;34665;51.886;5.436;2023-01-06T00:17:44;15.95;;;4.43;;
48845;SDS011;34665;51.886;5.436;2023-01-06T00:20:10;14.43;;;6.33;;
48845;SDS011;34665;51.886;5.436;2023-01-06T00:22:40;12.73;;;6.10;;
48845;SDS011;34665;51.886;5.436;2023-01-06T00:25:06;11.83;;;5.97;;
48845;SDS011;34665;51.886;5.436;2023-01-06T00:27:34;15.67;;;5.60;;
48845;SDS011;34665;51.886;5.436;2023-01-06T00:30:00;18.77;;;6.13;;
48845;SDS011;34665;51.886;5.436;2023-01-06T00:32:26;13.43;;;5.65;;
48845;SDS011;34665;51.886;5.436;2023-01-06T00:34:52;15.90;;;7.03;;
48845;SDS011;34665;51.886;5.436;2023-01-06T00:37:18;12.48;;;5.32;;
48845;SDS011;34665;51.886;5.436;2023-01-06T00:39:43;6.93;;;4.80;;
48845;SDS011;34665;51.886;5.436;2023-01-06T00:42:10;13.87;;;5.97;;
48845;SDS011;34665;51.886;5.436;2023-01-06T00:44:37;13.45;;;5.47;;
48845;SDS011;34665;51.886;5.436;2023-01-06T00:47:04;13.20;;;5.13;;
48845;SDS011;34665;51.886;5.436;2023-01-06T00:49:32;18.97;;;5.17;;
48845;SDS011;34665;51.886;5.436;2023-01-06T00:51:58;9.73;;;5.57;;
48845;SDS011;34665;51.886;5.436;2023-01-06T00:54:23;8.65;;;4.53;;
48845;SDS011;34665;51.886;5.436;2023-01-06T00:56:50;16.33;;;5.20;;
48845;SDS011;34665;51.886;5.436;2023-01-06T00:59:21;8.77;;;4.63;;
48845;SDS011;34665;51.886;5.436;2023-01-06T01:01:48;11.80;;;5.20;;
48845;SDS011;34665;51.886;5.436;2023-01-06T01:04:17;13.70;;;5.30;;
48845;SDS011;34665;51.886;5.436;2023-01-06T01:06:43;10.93;;;4.95;;
48845;SDS011;34665;51.886;5.436;2023-01-06T01:09:11;13.33;;;6.07;;
48845;SDS011;34665;51.886;5.436;2023-01-06T01:11:39;18.17;;;5.50;;
48845;SDS011;34665;51.886;5.436;2023-01-06T01:14:23;15.27;;;5.30;;
48845;SDS011;34665;51.886;5.436;2023-01-06T01:16:49;11.73;;;4.68;;
48845;SDS011;34665;51.886;5.436;2023-01-06T01:19:15;11.95;;;5.25;;
48845;SDS011;34665;51.886;5.436;2023-01-06T01:21:43;12.83;;;5.37;;
48845;SDS011;34665;51.886;5.436;2023-01-06T01:24:09;11.57;;;4.80;;
48845;SDS011;34665;51.886;5.436;2023-01-06T01:26:34;13.73;;;5.35;;
48845;SDS011;34665;51.886;5.436;2023-01-06T01:29:00;9.30;;;5.17;;
48845;SDS011;34665;51.886;5.436;2023-01-06T01:31:25;11.48;;;5.00;;
48845;SDS011;34665;51.886;5.436;2023-01-06T01:33:51;8.30;;;4.25;;
48845;SDS011;34665;51.886;5.436;2023-01-06T01:36:18;9.63;;;4.47;;
48845;SDS011;34665;51.886;5.436;2023-01-06T01:38:44;8.77;;;4.30;;
48845;SDS011;34665;51.886;5.436;2023-01-06T01:41:12;9.07;;;4.30;;
48845;SDS011;34665;51.886;5.436;2023-01-06T01:43:47;8.23;;;4.37;;
48845;SDS011;34665;51.886;5.436;2023-01-06T01:46:19;7.43;;;3.40;;
48845;SDS011;34665;51.886;5.436;2023-01-06T01:49:02;9.93;;;3.20;;
48845;SDS011;34665;51.886;5.436;2023-01-06T01:54:04;7.67;;;2.77;;
48845;SDS011;34665;51.886;5.436;2023-01-06T01:56:33;10.97;;;2.77;;
48845;SDS011;34665;51.886;5.436;2023-01-06T01:59:11;8.37;;;3.07;;
48845;SDS011;34665;51.886;5.436;2023-01-06T02:01:41;5.70;;;2.90;;
48845;SDS011;34665;51.886;5.436;2023-01-06T02:04:07;11.18;;;3.33;;
48845;SDS011;34665;51.886;5.436;2023-01-06T02:06:36;11.47;;;2.57;;
48845;SDS011;34665;51.886;5.436;2023-01-06T02:11:52;5.87;;;3.03;;
48845;SDS011;34665;51.886;5.436;2023-01-06T02:14:19;12.35;;;2.67;;
48845;SDS011;34665;51.886;5.436;2023-01-06T02:31:18;10.80;;;2.40;;
48845;SDS011;34665;51.886;5.436;2023-01-06T02:47:59;7.17;;;3.40;;
48845;SDS011;34665;51.886;5.436;2023-01-06T02:53:34;3.97;;;1.70;;
48845;SDS011;34665;51.886;5.436;2023-01-06T02:56:05;4.03;;;1.90;;
48845;SDS011;34665;51.886;5.436;2023-01-06T03:01:10;9.07;;;2.40;;
48845;SDS011;34665;51.886;5.436;2023-01-06T03:03:40;7.00;;;1.93;;
48845;SDS011;34665;51.886;5.436;2023-01-06T03:06:10;5.57;;;2.00;;
48845;SDS011;34665;51.886;5.436;2023-01-06T03:08:41;6.93;;;2.00;;
48845;SDS011;34665;51.886;5.436;2023-01-06T03:11:10;5.57;;;1.87;;
48845;SDS011;34665;51.886;5.436;2023-01-06T03:16:16;9.30;;;2.47;;
48845;SDS011;34665;51.886;5.436;2023-01-06T03:18:43;4.35;;;2.65;;
48845;SDS011;34665;51.886;5.436;2023-01-06T03:21:12;9.57;;;2.50;;
48845;SDS011;34665;51.886;5.436;2023-01-06T03:23:43;6.87;;;2.70;;
48845;SDS011;34665;51.886;5.436;2023-01-06T03:26:09;4.33;;;1.90;;
48845;SDS011;34665;51.886;5.436;2023-01-06T03:28:36;9.77;;;3.33;;
48845;SDS011;34665;51.886;5.436;2023-01-06T03:31:06;4.30;;;2.47;;
48845;SDS011;34665;51.886;5.436;2023-01-06T03:36:20;8.57;;;3.13;;
48845;SDS011;34665;51.886;5.436;2023-01-06T03:41:59;7.33;;;3.37;;
48845;SDS011;34665;51.886;5.436;2023-01-06T03:44:52;5.47;;;2.50;;
48845;SDS011;34665;51.886;5.436;2023-01-06T03:47:28;7.40;;;2.60;;
48845;SDS011;34665;51.886;5.436;2023-01-06T03:50:11;5.87;;;2.20;;
48845;SDS011;34665;51.886;5.436;2023-01-06T03:52:46;7.27;;;2.20;;
48845;SDS011;34665;51.886;5.436;2023-01-06T03:55:29;8.57;;;1.80;;
48845;SDS011;34665;51.886;5.436;2023-01-06T03:57:58;5.23;;;1.83;;
48845;SDS011;34665;51.886;5.436;2023-01-06T04:00:27;5.97;;;1.60;;
48845;SDS011;34665;51.886;5.436;2023-01-06T04:03:01;7.40;;;2.03;;
48845;SDS011;34665;51.886;5.436;2023-01-06T04:05:27;6.03;;;1.75;;
48845;SDS011;34665;51.886;5.436;2023-01-06T04:07:54;8.43;;;2.20;;
48845;SDS011;34665;51.886;5.436;2023-01-06T04:10:22;5.00;;;1.50;;
48845;SDS011;34665;51.886;5.436;2023-01-06T04:12:51;7.03;;;1.70;;
48845;SDS011;34665;51.886;5.436;2023-01-06T04:15:21;4.00;;;1.73;;
48845;SDS011;34665;51.886;5.436;2023-01-06T04:17:49;6.27;;;2.13;;
48845;SDS011;34665;51.886;5.436;2023-01-06T04:20:18;11.23;;;1.80;;
48845;SDS011;34665;51.886;5.436;2023-01-06T04:23:07;7.57;;;1.43;;
48845;SDS011;34665;51.886;5.436;2023-01-06T04:25:36;5.07;;;1.63;;
48845;SDS011;34665;51.886;5.436;2023-01-06T04:28:07;9.60;;;2.20;;
48845;SDS011;34665;51.886;5.436;2023-01-06T04:30:33;4.63;;;2.05;;
48845;SDS011;34665;51.886;5.436;2023-01-06T04:32:59;5.28;;;1.90;;
48845;SDS011;34665;51.886;5.436;2023-01-06T04:35:25;6.72;;;2.28;;
48845;SDS011;34665;51.886;5.436;2023-01-06T04:37:51;7.45;;;1.80;;
48845;SDS011;34665;51.886;5.436;2023-01-06T04:40:16;6.47;;;1.90;;
48845;SDS011;34665;51.886;5.436;2023-01-06T04:42:41;10.17;;;2.70;;
48845;SDS011;34665;51.886;5.436;2023-01-06T04:45:25;5.43;;;2.10;;
48845;SDS011;34665;51.886;5.436;2023-01-06T04:47:51;4.80;;;2.10;;
48845;SDS011;34665;51.886;5.436;2023-01-06T04:50:16;5.23;;;2.40;;
48845;SDS011;34665;51.886;5.436;2023-01-06T04:52:42;3.30;;;1.97;;
48845;SDS011;34665;51.886;5.436;2023-01-06T04:55:08;5.70;;;2.67;;
48845;SDS011;34665;51.886;5.436;2023-01-06T04:57:34;7.82;;;3.10;;
48845;SDS011;34665;51.886;5.436;2023-01-06T04:59:59;6.20;;;2.63;;
48845;SDS011;34665;51.886;5.436;2023-01-06T05:02:25;6.10;;;2.63;;
48845;SDS011;34665;51.886;5.436;2023-01-06T05:04:50;8.73;;;2.17;;
48845;SDS011;34665;51.886;5.436;2023-01-06T05:07:16;4.15;;;1.83;;
48845;SDS011;34665;51.886;5.436;2023-01-06T05:09:41;4.50;;;2.03;;
48845;SDS011;34665;51.886;5.436;2023-01-06T05:12:07;4.30;;;1.40;;
48845;SDS011;34665;51.886;5.436;2023-01-06T05:14:32;4.13;;;2.00;;
48845;SDS011;34665;51.886;5.436;2023-01-06T05:16:58;4.45;;;2.00;;
48845;SDS011;34665;51.886;5.436;2023-01-06T05:19:23;5.18;;;2.03;;
48845;SDS011;34665;51.886;5.436;2023-01-06T05:21:49;3.60;;;1.97;;
48845;SDS011;34665;51.886;5.436;2023-01-06T05:24:14;10.15;;;2.05;;
48845;SDS011;34665;51.886;5.436;2023-01-06T05:26:41;3.58;;;1.98;;
48845;SDS011;34665;51.886;5.436;2023-01-06T05:29:06;3.60;;;1.30;;
48845;SDS011;34665;51.886;5.436;2023-01-06T05:31:32;4.32;;;1.45;;
48845;SDS011;34665;51.886;5.436;2023-01-06T05:33:57;2.43;;;1.20;;
48845;SDS011;34665;51.886;5.436;2023-01-06T05:36:23;1.80;;;1.33;;
48845;SDS011;34665;51.886;5.436;2023-01-06T05:38:52;3.30;;;1.30;;
48845;SDS011;34665;51.886;5.436;2023-01-06T05:41:19;3.20;;;1.77;;
48845;SDS011;34665;51.886;5.436;2023-01-06T05:43:44;6.43;;;1.30;;
48845;SDS011;34665;51.886;5.436;2023-01-06T05:46:10;8.10;;;1.53;;
48845;SDS011;34665;51.886;5.436;2023-01-06T05:48:36;4.53;;;1.38;;
48845;SDS011;34665;51.886;5.436;2023-01-06T05:51:03;2.72;;;1.17;;
48845;SDS011;34665;51.886;5.436;2023-01-06T05:53:33;5.10;;;1.80;;
48845;SDS011;34665;51.886;5.436;2023-01-06T05:56:04;2.73;;;1.60;;
48845;SDS011;34665;51.886;5.436;2023-01-06T05:58:31;4.10;;;1.40;;
48845;SDS011;34665;51.886;5.436;2023-01-06T06:01:01;2.10;;;1.37;;
48845;SDS011;34665;51.886;5.436;2023-01-06T06:03:29;3.23;;;1.40;;
48845;SDS011;34665;51.886;5.436;2023-01-06T06:06:00;2.03;;;1.47;;
48845;SDS011;34665;51.886;5.436;2023-01-06T06:08:27;3.67;;;1.20;;
48845;SDS011;34665;51.886;5.436;2023-01-06T06:10:53;3.65;;;1.92;;
48845;SDS011;34665;51.886;5.436;2023-01-06T06:13:18;6.33;;;1.90;;
48845;SDS011;34665;51.886;5.436;2023-01-06T06:15:44;5.83;;;1.67;;
48845;SDS011;34665;51.886;5.436;2023-01-06T06:18:09;2.43;;;1.40;;
48845;SDS011;34665;51.886;5.436;2023-01-06T06:20:35;3.58;;;1.60;;
48845;SDS011;34665;51.886;5.436;2023-01-06T06:23:00;6.93;;;2.10;;
48845;SDS011;34665;51.886;5.436;2023-01-06T06:25:25;3.27;;;1.77;;
48845;SDS011;34665;51.886;5.436;2023-01-06T06:27:55;3.45;;;2.00;;
48845;SDS011;34665;51.886;5.436;2023-01-06T06:30:21;8.13;;;2.33;;
48845;SDS011;34665;51.886;5.436;2023-01-06T06:32:47;5.37;;;2.10;;
48845;SDS011;34665;51.886;5.436;2023-01-06T06:35:12;3.23;;;1.50;;
48845;SDS011;34665;51.886;5.436;2023-01-06T06:37:38;7.88;;;2.47;;
48845;SDS011;34665;51.886;5.436;2023-01-06T06:40:03;4.33;;;1.67;;
48845;SDS011;34665;51.886;5.436;2023-01-06T06:42:29;4.80;;;2.20;;
48845;SDS011;34665;51.886;5.436;2023-01-06T06:44:56;4.97;;;2.08;;
48845;SDS011;34665;51.886;5.436;2023-01-06T06:47:21;3.10;;;1.90;;
48845;SDS011;34665;51.886;5.436;2023-01-06T06:49:47;2.40;;;1.67;;
48845;SDS011;34665;51.886;5.436;2023-01-06T06:52:12;4.03;;;2.23;;
48845;SDS011;34665;51.886;5.436;2023-01-06T06:54:38;4.25;;;2.40;;
48845;SDS011;34665;51.886;5.436;2023-01-06T06:57:03;10.07;;;3.03;;
48845;SDS011;34665;51.886;5.436;2023-01-06T06:59:29;3.17;;;2.40;;
48845;SDS011;34665;51.886;5.436;2023-01-06T07:01:55;3.35;;;2.50;;
48845;SDS011;34665;51.886;5.436;2023-01-06T07:04:20;6.67;;;2.57;;
48845;SDS011;34665;51.886;5.436;2023-01-06T07:06:46;3.78;;;2.70;;
48845;SDS011;34665;51.886;5.436;2023-01-06T07:09:11;6.03;;;3.33;;
48845;SDS011;34665;51.886;5.436;2023-01-06T07:11:37;6.77;;;3.03;;
48845;SDS011;34665;51.886;5.436;2023-01-06T07:14:03;6.53;;;3.33;;
48845;SDS011;34665;51.886;5.436;2023-01-06T07:16:28;8.05;;;3.60;;
48845;SDS011;34665;51.886;5.436;2023-01-06T07:18:55;8.30;;;4.17;;
48845;SDS011;34665;51.886;5.436;2023-01-06T07:21:21;10.87;;;4.03;;
48845;SDS011;34665;51.886;5.436;2023-01-06T07:23:46;8.00;;;4.35;;
48845;SDS011;34665;51.886;5.436;2023-01-06T07:26:12;9.27;;;4.43;;
48845;SDS011;34665;51.886;5.436;2023-01-06T07:28:39;7.80;;;5.03;;
48845;SDS011;34665;51.886;5.436;2023-01-06T07:31:05;9.87;;;5.27;;
48845;SDS011;34665;51.886;5.436;2023-01-06T07:33:30;8.63;;;5.97;;
48845;SDS011;34665;51.886;5.436;2023-01-06T07:35:56;11.73;;;6.80;;
48845;SDS011;34665;51.886;5.436;2023-01-06T07:38:22;16.15;;;6.75;;
48845;SDS011;34665;51.886;5.436;2023-01-06T07:43:14;15.20;;;7.53;;
48845;SDS011;34665;51.886;5.436;2023-01-06T07:45:41;12.13;;;7.87;;
48845;SDS011;34665;51.886;5.436;2023-01-06T07:48:07;15.98;;;8.15;;
48845;SDS011;34665;51.886;5.436;2023-01-06T07:50:33;77.60;;;11.30;;
48845;SDS011;34665;51.886;5.436;2023-01-06T07:52:59;53.50;;;10.97;;
48845;SDS011;34665;51.886;5.436;2023-01-06T07:55:26;25.83;;;12.23;;
48845;SDS011;34665;51.886;5.436;2023-01-06T07:57:52;18.27;;;9.90;;
48845;SDS011;34665;51.886;5.436;2023-01-06T08:00:18;17.95;;;10.00;;
48845;SDS011;34665;51.886;5.436;2023-01-06T08:02:43;15.00;;;9.65;;
48845;SDS011;34665;51.886;5.436;2023-01-06T08:05:09;16.75;;;9.98;;
48845;SDS011;34665;51.886;5.436;2023-01-06T08:07:35;16.13;;;9.43;;
48845;SDS011;34665;51.886;5.436;2023-01-06T08:10:00;17.07;;;10.40;;
48845;SDS011;34665;51.886;5.436;2023-01-06T08:12:26;12.65;;;7.93;;
48845;SDS011;34665;51.886;5.436;2023-01-06T08:14:51;11.40;;;6.57;;
48845;SDS011;34665;51.886;5.436;2023-01-06T08:17:17;11.10;;;6.17;;
48845;SDS011;34665;51.886;5.436;2023-01-06T08:19:42;12.48;;;7.07;;
48845;SDS011;34665;51.886;5.436;2023-01-06T08:22:08;13.57;;;7.10;;
48845;SDS011;34665;51.886;5.436;2023-01-06T08:24:34;15.27;;;7.75;;
48845;SDS011;34665;51.886;5.436;2023-01-06T08:26:59;22.57;;;9.23;;
48845;SDS011;34665;51.886;5.436;2023-01-06T08:29:25;24.17;;;9.70;;
48845;SDS011;34665;51.886;5.436;2023-01-06T08:31:50;26.93;;;9.93;;
48845;SDS011;34665;51.886;5.436;2023-01-06T08:34:17;22.25;;;8.43;;
48845;SDS011;34665;51.886;5.436;2023-01-06T08:36:43;43.42;;;9.82;;
48845;SDS011;34665;51.886;5.436;2023-01-06T08:39:10;15.77;;;7.60;;
48845;SDS011;34665;51.886;5.436;2023-01-06T08:41:37;22.13;;;7.83;;
48845;SDS011;34665;51.886;5.436;2023-01-06T08:44:03;20.95;;;7.30;;
48845;SDS011;34665;51.886;5.436;2023-01-06T08:46:28;16.30;;;6.47;;
48845;SDS011;34665;51.886;5.436;2023-01-06T08:48:54;9.82;;;4.70;;
48845;SDS011;34665;51.886;5.436;2023-01-06T08:51:22;14.50;;;5.17;;
48845;SDS011;34665;51.886;5.436;2023-01-06T08:56:16;14.48;;;5.53;;
48845;SDS011;34665;51.886;5.436;2023-01-06T08:58:44;12.03;;;4.90;;
48845;SDS011;34665;51.886;5.436;2023-01-06T09:01:15;17.43;;;5.20;;
48845;SDS011;34665;51.886;5.436;2023-01-06T09:03:42;16.17;;;5.30;;
48845;SDS011;34665;51.886;5.436;2023-01-06T09:06:08;12.20;;;4.72;;
48845;SDS011;34665;51.886;5.436;2023-01-06T09:08:33;21.93;;;6.97;;
48845;SDS011;34665;51.886;5.436;2023-01-06T09:11:03;18.20;;;6.13;;
48845;SDS011;34665;51.886;5.436;2023-01-06T09:13:32;24.47;;;6.07;;
48845;SDS011;34665;51.886;5.436;2023-01-06T09:15:58;21.45;;;5.78;;
48845;SDS011;34665;51.886;5.436;2023-01-06T09:18:24;23.93;;;5.87;;
48845;SDS011;34665;51.886;5.436;2023-01-06T09:20:49;17.20;;;4.38;;
48845;SDS011;34665;51.886;5.436;2023-01-06T09:23:15;8.07;;;3.70;;
48845;SDS011;34665;51.886;5.436;2023-01-06T09:25:40;9.90;;;3.97;;
48845;SDS011;34665;51.886;5.436;2023-01-06T09:28:06;21.23;;;4.57;;
48845;SDS011;34665;51.886;5.436;2023-01-06T09:30:31;13.40;;;3.53;;
48845;SDS011;34665;51.886;5.436;2023-01-06T09:32:57;15.93;;;3.97;;
48845;SDS011;34665;51.886;5.436;2023-01-06T09:35:22;15.43;;;3.40;;
48845;SDS011;34665;51.886;5.436;2023-01-06T09:37:48;19.53;;;3.90;;
48845;SDS011;34665;51.886;5.436;2023-01-06T09:40:18;6.53;;;2.85;;
48845;SDS011;34665;51.886;5.436;2023-01-06T09:45:29;14.47;;;2.63;;
48845;SDS011;34665;51.886;5.436;2023-01-06T09:48:00;13.10;;;2.60;;
48845;SDS011;34665;51.886;5.436;2023-01-06T09:50:32;9.73;;;1.90;;
48845;SDS011;34665;51.886;5.436;2023-01-06T09:53:03;9.47;;;2.37;;
48845;SDS011;34665;51.886;5.436;2023-01-06T09:55:36;16.53;;;2.13;;
48845;SDS011;34665;51.886;5.436;2023-01-06T10:00:47;11.47;;;1.80;;
48845;SDS011;34665;51.886;5.436;2023-01-06T10:03:19;11.20;;;1.87;;
48845;SDS011;34665;51.886;5.436;2023-01-06T10:06:02;11.63;;;1.77;;
48845;SDS011;34665;51.886;5.436;2023-01-06T10:11:13;10.00;;;2.43;;
48845;SDS011;34665;51.886;5.436;2023-01-06T10:13:46;9.85;;;2.00;;
48845;SDS011;34665;51.886;5.436;2023-01-06T10:24:21;12.10;;;2.03;;
48845;SDS011;34665;51.886;5.436;2023-01-06T10:29:51;6.10;;;1.10;;
48845;SDS011;34665;51.886;5.436;2023-01-06T10:32:20;5.57;;;1.40;;
48845;SDS011;34665;51.886;5.436;2023-01-06T10:34:47;15.20;;;2.13;;
48845;SDS011;34665;51.886;5.436;2023-01-06T10:42:47;9.10;;;1.87;;
48845;SDS011;34665;51.886;5.436;2023-01-06T10:45:22;8.30;;;2.10;;
48845;SDS011;34665;51.886;5.436;2023-01-06T10:47:51;7.60;;;2.53;;
48845;SDS011;34665;51.886;5.436;2023-01-06T10:50:18;9.00;;;1.80;;
48845;SDS011;34665;51.886;5.436;2023-01-06T10:58:10;13.73;;;1.73;;
48845;SDS011;34665;51.886;5.436;2023-01-06T11:03:33;7.63;;;1.80;;
48845;SDS011;34665;51.886;5.436;2023-01-06T11:06:23;7.93;;;1.77;;
48845;SDS011;34665;51.886;5.436;2023-01-06T11:08:49;6.00;;;1.77;;
48845;SDS011;34665;51.886;5.436;2023-01-06T11:11:15;6.93;;;1.70;;
48845;SDS011;34665;51.886;5.436;2023-01-06T11:13:46;9.40;;;2.07;;
48845;SDS011;34665;51.886;5.436;2023-01-06T11:16:19;12.57;;;1.63;;
48845;SDS011;34665;51.886;5.436;2023-01-06T11:18:53;9.93;;;1.60;;
48845;SDS011;34665;51.886;5.436;2023-01-06T11:21:21;6.53;;;1.00;;
48845;SDS011;34665;51.886;5.436;2023-01-06T11:23:47;10.50;;;1.90;;
48845;SDS011;34665;51.886;5.436;2023-01-06T11:26:17;10.47;;;1.50;;
48845;SDS011;34665;51.886;5.436;2023-01-06T11:28:46;6.87;;;1.57;;
48845;SDS011;34665;51.886;5.436;2023-01-06T11:33:49;7.43;;;2.28;;
48845;SDS011;34665;51.886;5.436;2023-01-06T11:36:16;7.50;;;1.90;;
48845;SDS011;34665;51.886;5.436;2023-01-06T11:41:17;7.73;;;1.90;;
48845;SDS011;34665;51.886;5.436;2023-01-06T11:43:51;4.37;;;1.03;;
48845;SDS011;34665;51.886;5.436;2023-01-06T11:46:21;10.13;;;1.40;;
48845;SDS011;34665;51.886;5.436;2023-01-06T11:49:02;9.03;;;1.87;;
48845;SDS011;34665;51.886;5.436;2023-01-06T11:54:15;5.20;;;1.40;;
48845;SDS011;34665;51.886;5.436;2023-01-06T11:56:57;5.07;;;1.03;;
48845;SDS011;34665;51.886;5.436;2023-01-06T11:59:42;5.10;;;1.17;;
48845;SDS011;34665;51.886;5.436;2023-01-06T12:02:27;6.90;;;0.93;;
48845;SDS011;34665;51.886;5.436;2023-01-06T12:04:59;7.23;;;1.43;;
48845;SDS011;34665;51.886;5.436;2023-01-06T12:07:32;5.47;;;1.30;;
48845;SDS011;34665;51.886;5.436;2023-01-06T12:10:10;9.93;;;1.40;;
48845;SDS011;34665;51.886;5.436;2023-01-06T12:12:40;13.97;;;1.80;;
48845;SDS011;34665;51.886;5.436;2023-01-06T12:15:11;7.53;;;1.30;;
48845;SDS011;34665;51.886;5.436;2023-01-06T12:17:41;7.67;;;2.77;;
48845;SDS011;34665;51.886;5.436;2023-01-06T12:25:49;5.40;;;0.90;;
48845;SDS011;34665;51.886;5.436;2023-01-06T12:28:27;5.13;;;1.20;;
48845;SDS011;34665;51.886;5.436;2023-01-06T12:31:23;4.20;;;1.30;;
48845;SDS011;34665;51.886;5.436;2023-01-06T12:33:56;5.77;;;1.70;;
48845;SDS011;34665;51.886;5.436;2023-01-06T12:39:12;8.43;;;3.23;;
48845;SDS011;34665;51.886;5.436;2023-01-06T12:41:52;6.17;;;1.13;;
48845;SDS011;34665;51.886;5.436;2023-01-06T12:44:32;4.43;;;0.93;;
48845;SDS011;34665;51.886;5.436;2023-01-06T12:52:45;4.63;;;1.10;;
48845;SDS011;34665;51.886;5.436;2023-01-06T12:55:15;3.53;;;1.10;;
48845;SDS011;34665;51.886;5.436;2023-01-06T12:58:01;5.37;;;1.17;;
48845;SDS011;34665;51.886;5.436;2023-01-06T13:03:17;1.87;;;0.80;;
48845;SDS011;34665;51.886;5.436;2023-01-06T13:06:07;5.10;;;1.00;;
48845;SDS011;34665;51.886;5.436;2023-01-06T13:17:33;3.77;;;1.00;;
48845;SDS011;34665;51.886;5.436;2023-01-06T13:20:04;3.08;;;0.80;;
48845;SDS011;34665;51.886;5.436;2023-01-06T13:22:41;2.27;;;0.70;;
48845;SDS011;34665;51.886;5.436;2023-01-06T13:28:14;5.17;;;1.00;;
48845;SDS011;34665;51.886;5.436;2023-01-06T13:31:07;3.50;;;1.03;;
48845;SDS011;34665;51.886;5.436;2023-01-06T13:33:55;1.90;;;0.90;;
48845;SDS011;34665;51.886;5.436;2023-01-06T13:39:51;3.67;;;0.90;;
48845;SDS011;34665;51.886;5.436;2023-01-06T13:42:24;4.67;;;1.10;;
48845;SDS011;34665;51.886;5.436;2023-01-06T13:44:57;3.78;;;0.70;;
48845;SDS011;34665;51.886;5.436;2023-01-06T13:47:22;2.53;;;0.80;;
48845;SDS011;34665;51.886;5.436;2023-01-06T13:49:49;7.17;;;0.90;;
48845;SDS011;34665;51.886;5.436;2023-01-06T13:52:20;1.87;;;0.80;;
48845;SDS011;34665;51.886;5.436;2023-01-06T13:57:36;6.00;;;1.00;;
48845;SDS011;34665;51.886;5.436;2023-01-06T14:07:47;6.37;;;1.63;;
48845;SDS011;34665;51.886;5.436;2023-01-06T14:13:20;4.87;;;1.50;;
48845;SDS011;34665;51.886;5.436;2023-01-06T14:15:55;6.73;;;1.43;;
48845;SDS011;34665;51.886;5.436;2023-01-06T14:21:02;8.20;;;1.57;;
48845;SDS011;34665;51.886;5.436;2023-01-06T14:24:05;9.23;;;2.13;;
48845;SDS011;34665;51.886;5.436;2023-01-06T14:32:03;6.30;;;2.33;;
48845;SDS011;34665;51.886;5.436;2023-01-06T14:34:29;8.07;;;1.65;;
48845;SDS011;34665;51.886;5.436;2023-01-06T14:36:56;4.77;;;1.43;;
48845;SDS011;34665;51.886;5.436;2023-01-06T14:39:23;7.30;;;2.00;;
48845;SDS011;34665;51.886;5.436;2023-01-06T14:44:49;5.30;;;1.70;;
48845;SDS011;34665;51.886;5.436;2023-01-06T14:47:32;11.50;;;1.97;;
48845;SDS011;34665;51.886;5.436;2023-01-06T14:50:03;6.57;;;1.57;;
48845;SDS011;34665;51.886;5.436;2023-01-06T14:52:37;6.73;;;1.67;;
48845;SDS011;34665;51.886;5.436;2023-01-06T14:55:10;5.47;;;1.70;;
48845;SDS011;34665;51.886;5.436;2023-01-06T14:57:40;9.83;;;1.47;;
48845;SDS011;34665;51.886;5.436;2023-01-06T15:00:25;9.63;;;2.53;;
48845;SDS011;34665;51.886;5.436;2023-01-06T15:03:02;8.00;;;1.83;;
48845;SDS011;34665;51.886;5.436;2023-01-06T15:05:36;6.37;;;2.40;;
48845;SDS011;34665;51.886;5.436;2023-01-06T15:08:14;7.17;;;2.43;;
48845;SDS011;34665;51.886;5.436;2023-01-06T15:10:42;9.80;;;3.10;;
48845;SDS011;34665;51.886;5.436;2023-01-06T15:13:23;11.50;;;2.57;;
48845;SDS011;34665;51.886;5.436;2023-01-06T15:18:40;13.00;;;3.20;;
48845;SDS011;34665;51.886;5.436;2023-01-06T15:21:07;10.37;;;2.20;;
48845;SDS011;34665;51.886;5.436;2023-01-06T15:23:33;11.83;;;2.80;;
48845;SDS011;34665;51.886;5.436;2023-01-06T15:25:58;8.55;;;2.25;;
48845;SDS011;34665;51.886;5.436;2023-01-06T15:30:50;10.05;;;3.08;;
48845;SDS011;34665;51.886;5.436;2023-01-06T15:33:15;9.38;;;2.95;;
48845;SDS011;34665;51.886;5.436;2023-01-06T15:35:41;7.80;;;2.67;;
48845;SDS011;34665;51.886;5.436;2023-01-06T15:40:54;7.68;;;2.97;;
48845;SDS011;34665;51.886;5.436;2023-01-06T15:43:21;9.55;;;2.53;;
48845;SDS011;34665;51.886;5.436;2023-01-06T15:45:58;7.43;;;2.27;;
48845;SDS011;34665;51.886;5.436;2023-01-06T15:48:33;8.20;;;3.13;;
48845;SDS011;34665;51.886;5.436;2023-01-06T15:51:12;14.57;;;3.50;;
48845;SDS011;34665;51.886;5.436;2023-01-06T15:53:40;7.70;;;3.10;;
48845;SDS011;34665;51.886;5.436;2023-01-06T15:56:08;9.03;;;2.97;;
48845;SDS011;34665;51.886;5.436;2023-01-06T15:58:43;10.20;;;3.57;;
48845;SDS011;34665;51.886;5.436;2023-01-06T16:01:12;14.20;;;3.53;;
48845;SDS011;34665;51.886;5.436;2023-01-06T16:03:43;6.83;;;2.60;;
48845;SDS011;34665;51.886;5.436;2023-01-06T16:06:11;12.50;;;2.57;;
48845;SDS011;34665;51.886;5.436;2023-01-06T16:08:39;12.10;;;2.30;;
48845;SDS011;34665;51.886;5.436;2023-01-06T16:13:40;11.00;;;2.77;;
48845;SDS011;34665;51.886;5.436;2023-01-06T16:16:51;9.57;;;2.35;;
48845;SDS011;34665;51.886;5.436;2023-01-06T16:19:07;5.88;;;1.60;;
48845;SDS011;34665;51.886;5.436;2023-01-06T16:21:34;8.47;;;1.80;;
48845;SDS011;34665;51.886;5.436;2023-01-06T16:24:02;5.07;;;1.50;;
48845;SDS011;34665;51.886;5.436;2023-01-06T16:26:30;6.87;;;2.07;;
48845;SDS011;34665;51.886;5.436;2023-01-06T16:29:20;11.95;;;2.60;;
48845;SDS011;34665;51.886;5.436;2023-01-06T16:31:47;12.63;;;2.27;;
48845;SDS011;34665;51.886;5.436;2023-01-06T16:36:41;5.83;;;1.60;;
48845;SDS011;34665;51.886;5.436;2023-01-06T16:39:07;15.67;;;2.83;;
48845;SDS011;34665;51.886;5.436;2023-01-06T16:41:32;5.97;;;2.60;;
48845;SDS011;34665;51.886;5.436;2023-01-06T16:43:58;3.57;;;1.67;;
48845;SDS011;34665;51.886;5.436;2023-01-06T16:46:23;5.90;;;2.13;;
48845;SDS011;34665;51.886;5.436;2023-01-06T16:48:54;11.17;;;2.53;;
48845;SDS011;34665;51.886;5.436;2023-01-06T16:51:26;7.03;;;2.03;;
48845;SDS011;34665;51.886;5.436;2023-01-06T16:53:53;9.00;;;2.80;;
48845;SDS011;34665;51.886;5.436;2023-01-06T16:56:19;10.40;;;3.47;;
48845;SDS011;34665;51.886;5.436;2023-01-06T16:58:47;14.40;;;3.10;;
48845;SDS011;34665;51.886;5.436;2023-01-06T17:01:17;14.00;;;2.70;;
48845;SDS011;34665;51.886;5.436;2023-01-06T17:03:48;6.93;;;2.27;;
48845;SDS011;34665;51.886;5.436;2023-01-06T17:06:19;9.67;;;3.13;;
48845;SDS011;34665;51.886;5.436;2023-01-06T17:08:47;7.60;;;2.40;;
48845;SDS011;34665;51.886;5.436;2023-01-06T17:11:17;11.30;;;3.78;;
48845;SDS011;34665;51.886;5.436;2023-01-06T17:13:49;10.57;;;3.37;;
48845;SDS011;34665;51.886;5.436;2023-01-06T17:16:15;10.67;;;3.83;;
48845;SDS011;34665;51.886;5.436;2023-01-06T17:18:46;13.00;;;3.73;;
48845;SDS011;34665;51.886;5.436;2023-01-06T17:21:21;14.10;;;3.63;;
48845;SDS011;34665;51.886;5.436;2023-01-06T17:23:58;10.53;;;2.90;;
48845;SDS011;34665;51.886;5.436;2023-01-06T17:26:33;11.93;;;3.03;;
48845;SDS011;34665;51.886;5.436;2023-01-06T17:28:59;13.40;;;3.40;;
48845;SDS011;34665;51.886;5.436;2023-01-06T17:33:56;10.67;;;3.90;;
48845;SDS011;34665;51.886;5.436;2023-01-06T17:36:32;21.43;;;3.73;;
48845;SDS011;34665;51.886;5.436;2023-01-06T17:39:01;8.30;;;4.43;;
48845;SDS011;34665;51.886;5.436;2023-01-06T17:41:27;9.75;;;4.97;;